Archival Weather

Tokyo Intl

Tokyo Intl, Japan (RJTT)

Report from: Friday, June 24, 2022 5:30 AM JST
Current time: Tuesday, August 16, 2022 3:37 PM JST

Current weather
Weather history
Weather forecast

Temperature24.0°C (75.2°F)
Dew point23.0°C (73.4°F)
Winds 12 kts (6.2 m/s, 13.8 mph) South (190°)
Visibility6.2 mi. (10 km)
Clouds Few clouds 300 ft. (91 m)
Ceiling: Broken clouds 800 ft. (244 m)
Few clouds 800 ft. (244 m)
Broken clouds 1,100 ft. (335 m)
Broken clouds 1,200 ft. (366 m)
Altimeter29.77 in.Hg (1008 mB)
Relative humidity94 %
Density altitude1,599 ft. (487 m)
Flight conditions Instrument Meteorological Conditions
Raw dataRJTT 232030Z 19012KT 9999 FEW003 BKN008 BKN011 24/23 Q1008 BECMG FEW008 BKN012 RMK 1ST003 6ST008 7CU011 A2977
An error has occurred. This application may no longer respond until reloaded. Reload 🗙